SIA851 ZGGG-WSSS
Flight info
| Callsign | SIA851 |
|---|---|
| Flight time | N/A |
| Altitude | 38000 |
| Route | VIBOS9 VIBOS R473 SIERA DCT EPDOS L642 EPKAL/K0902F380 L642 ESPOB/N0482F380 Q801 ESBUM Q802 ELALO ELALO1A |
| Aircraft | A388/J-SADE2E3FGHIJ3J4J5M1RWXYZ/LB1D1 |
Departure
| Time | 2026-05-05 11:40 |
|---|---|
| Airport | Guangzhou Baiyun International Airport (ZGGG) |
Arrival
| Time | N/A |
|---|---|
| Airport | Singapore Changi Airport (WSSS) |
| Time | Latitude | Longitude | Altitude | Speed | Heading |
|---|---|---|---|---|---|
| 2026-05-05 11:00 | 23.39648 | 113.30576 | 56 ft | 0 kts | 341° |
| 2026-05-05 11:25 | 23.39643 | 113.30578 | 51 ft | 2 kts | 341° |
| 2026-05-05 11:26 | 23.39624 | 113.30585 | 51 ft | 3 kts | 341° |
| 2026-05-05 11:26 | 23.39605 | 113.30592 | 55 ft | 3 kts | 341° |
| 2026-05-05 11:26 | 23.39586 | 113.30599 | 54 ft | 3 kts | 340° |
| 2026-05-05 11:26 | 23.39568 | 113.30608 | 53 ft | 3 kts | 319° |
| 2026-05-05 11:27 | 23.39557 | 113.30623 | 53 ft | 3 kts | 278° |
| 2026-05-05 11:27 | 23.39561 | 113.30657 | 53 ft | 3 kts | 228° |
| 2026-05-05 11:27 | 23.39573 | 113.30668 | 53 ft | 3 kts | 209° |
| 2026-05-05 11:28 | 23.39591 | 113.30677 | 53 ft | 3 kts | 198° |
| 2026-05-05 11:28 | 23.39609 | 113.30683 | 53 ft | 2 kts | 194° |
| 2026-05-05 11:28 | 23.39613 | 113.30684 | 53 ft | 0 kts | 194° |
| 2026-05-05 11:31 | 23.39610 | 113.30683 | 53 ft | 4 kts | 194° |
| 2026-05-05 11:31 | 23.39559 | 113.30677 | 58 ft | 10 kts | 166° |
| 2026-05-05 11:31 | 23.39503 | 113.30733 | 58 ft | 11 kts | 144° |
| 2026-05-05 11:31 | 23.39424 | 113.30735 | 54 ft | 13 kts | 195° |
| 2026-05-05 11:32 | 23.39322 | 113.30706 | 58 ft | 17 kts | 194° |
| 2026-05-05 11:32 | 23.39204 | 113.30672 | 55 ft | 18 kts | 194° |
| 2026-05-05 11:32 | 23.39074 | 113.30635 | 54 ft | 20 kts | 194° |
| 2026-05-05 11:32 | 23.38930 | 113.30596 | 55 ft | 22 kts | 191° |
| 2026-05-05 11:33 | 23.38807 | 113.30566 | 55 ft | 14 kts | 194° |
| 2026-05-05 11:33 | 23.38702 | 113.30537 | 58 ft | 17 kts | 194° |
| 2026-05-05 11:33 | 23.38578 | 113.30503 | 57 ft | 20 kts | 194° |
| 2026-05-05 11:33 | 23.38422 | 113.30461 | 56 ft | 27 kts | 194° |
| 2026-05-05 11:34 | 23.38239 | 113.30413 | 55 ft | 27 kts | 193° |
| 2026-05-05 11:34 | 23.38056 | 113.30364 | 54 ft | 27 kts | 193° |
| 2026-05-05 11:34 | 23.37874 | 113.30315 | 55 ft | 27 kts | 194° |
| 2026-05-05 11:34 | 23.37730 | 113.30277 | 56 ft | 17 kts | 194° |
| 2026-05-05 11:35 | 23.37654 | 113.30271 | 53 ft | 5 kts | 134° |
| 2026-05-05 11:35 | 23.37632 | 113.30317 | 55 ft | 9 kts | 105° |
| 2026-05-05 11:35 | 23.37613 | 113.30394 | 59 ft | 12 kts | 105° |
| 2026-05-05 11:35 | 23.37590 | 113.30491 | 58 ft | 14 kts | 103° |
| 2026-05-05 11:36 | 23.37566 | 113.30602 | 54 ft | 16 kts | 103° |
| 2026-05-05 11:36 | 23.37527 | 113.30713 | 53 ft | 14 kts | 151° |
| 2026-05-05 11:36 | 23.37432 | 113.30704 | 57 ft | 16 kts | 195° |
| 2026-05-05 11:36 | 23.37320 | 113.30668 | 53 ft | 18 kts | 196° |
| 2026-05-05 11:37 | 23.37189 | 113.30629 | 55 ft | 21 kts | 195° |
| 2026-05-05 11:37 | 23.37062 | 113.30598 | 54 ft | 7 kts | 175° |
| 2026-05-05 11:37 | 23.37017 | 113.30613 | 55 ft | 8 kts | 142° |
| 2026-05-05 11:37 | 23.37000 | 113.30659 | 60 ft | 8 kts | 90° |
| 2026-05-05 11:38 | 23.36995 | 113.30732 | 61 ft | 12 kts | 94° |
| 2026-05-05 11:38 | 23.37026 | 113.30786 | 59 ft | 9 kts | 24° |
| 2026-05-05 11:38 | 23.37047 | 113.30791 | 55 ft | 10 kts | 5° |
| 2026-05-05 11:39 | 23.37160 | 113.30824 | 55 ft | 7 kts | 17° |
| 2026-05-05 11:39 | 23.37334 | 113.30874 | 57 ft | 53 kts | 12° |
| 2026-05-05 11:39 | 23.37973 | 113.31047 | 55 ft | 132 kts | 15° |
| 2026-05-05 11:39 | 23.39045 | 113.31334 | 58 ft | 180 kts | 13° |
| 2026-05-05 11:40 | 23.40307 | 113.31697 | 334 ft | 192 kts | 17° |
| 2026-05-05 11:40 | 23.41582 | 113.32196 | 652 ft | 197 kts | 23° |
| 2026-05-05 11:40 | 23.42838 | 113.32773 | 1134 ft | 196 kts | 22° |
| 2026-05-05 11:40 | 23.44049 | 113.33400 | 1604 ft | 198 kts | 33° |
| 2026-05-05 11:41 | 23.45236 | 113.34175 | 2039 ft | 202 kts | 21° |
| 2026-05-05 11:41 | 23.46651 | 113.34372 | 2371 ft | 211 kts | 359° |
| 2026-05-05 11:41 | 23.48151 | 113.34340 | 2691 ft | 220 kts | 0° |
| 2026-05-05 11:41 | 23.49699 | 113.34436 | 2991 ft | 225 kts | 6° |
| 2026-05-05 11:42 | 23.51254 | 113.34697 | 3340 ft | 228 kts | 10° |
| 2026-05-05 11:42 | 23.52814 | 113.35058 | 3699 ft | 231 kts | 12° |
| 2026-05-05 11:42 | 23.54416 | 113.35475 | 4053 ft | 248 kts | 12° |
| 2026-05-05 11:42 | 23.56135 | 113.35915 | 4501 ft | 263 kts | 8° |
| 2026-05-05 11:43 | 23.57962 | 113.36254 | 5293 ft | 268 kts | 7° |
| 2026-05-05 11:43 | 23.59818 | 113.36569 | 6127 ft | 271 kts | 358° |
| 2026-05-05 11:43 | 23.61639 | 113.36210 | 6906 ft | 266 kts | 330° |
| 2026-05-05 11:43 | 23.63078 | 113.35005 | 7692 ft | 260 kts | 303° |
| 2026-05-05 11:44 | 23.63823 | 113.33243 | 8474 ft | 256 kts | 276° |
| 2026-05-05 11:44 | 23.64018 | 113.31317 | 9285 ft | 258 kts | 272° |
| 2026-05-05 11:44 | 23.64205 | 113.29425 | 10066 ft | 261 kts | 273° |
| 2026-05-05 11:44 | 23.64437 | 113.27422 | 10878 ft | 262 kts | 274° |
| 2026-05-05 11:45 | 23.64691 | 113.25447 | 11636 ft | 266 kts | 275° |
| 2026-05-05 11:45 | 23.64967 | 113.23371 | 11882 ft | 287 kts | 276° |
| 2026-05-05 11:45 | 23.65271 | 113.21137 | 12055 ft | 308 kts | 276° |
| 2026-05-05 11:45 | 23.65556 | 113.18748 | 12270 ft | 324 kts | 270° |
| 2026-05-05 11:46 | 23.65241 | 113.16332 | 12920 ft | 326 kts | 252° |
| 2026-05-05 11:46 | 23.64213 | 113.14125 | 13586 ft | 331 kts | 235° |
| 2026-05-05 11:46 | 23.62598 | 113.12302 | 14182 ft | 337 kts | 226° |
| 2026-05-05 11:46 | 23.60887 | 113.10549 | 14780 ft | 339 kts | 226° |
| 2026-05-05 11:47 | 23.59016 | 113.08998 | 15306 ft | 348 kts | 213° |
| 2026-05-05 11:47 | 23.56728 | 113.08065 | 15933 ft | 358 kts | 197° |
| 2026-05-05 11:47 | 23.54202 | 113.07863 | 16508 ft | 368 kts | 185° |
| 2026-05-05 11:47 | 23.51626 | 113.07898 | 17057 ft | 372 kts | 185° |
| 2026-05-05 11:48 | 23.46421 | 113.07945 | 18160 ft | 377 kts | 186° |
| 2026-05-05 11:48 | 23.43783 | 113.07962 | 18637 ft | 380 kts | 186° |
| 2026-05-05 11:48 | 23.41154 | 113.07976 | 19039 ft | 384 kts | 186° |
| 2026-05-05 11:49 | 23.38472 | 113.07991 | 19446 ft | 388 kts | 186° |
| 2026-05-05 11:49 | 23.35733 | 113.08003 | 19631 ft | 399 kts | 186° |
| 2026-05-05 11:49 | 23.32915 | 113.08014 | 19744 ft | 412 kts | 186° |
| 2026-05-05 11:49 | 23.30007 | 113.08051 | 19846 ft | 425 kts | 183° |
| 2026-05-05 11:50 | 23.27019 | 113.08401 | 19951 ft | 440 kts | 176° |
| 2026-05-05 11:50 | 23.23982 | 113.09178 | 20025 ft | 455 kts | 169° |
| 2026-05-05 11:50 | 23.20973 | 113.10388 | 20110 ft | 468 kts | 162° |
| 2026-05-05 11:50 | 23.18009 | 113.11770 | 20243 ft | 474 kts | 162° |
| 2026-05-05 11:51 | 23.14953 | 113.13175 | 20494 ft | 477 kts | 162° |
| 2026-05-05 11:51 | 23.11885 | 113.14576 | 20767 ft | 480 kts | 162° |
| 2026-05-05 11:51 | 23.08793 | 113.15984 | 21040 ft | 483 kts | 162° |
| 2026-05-05 11:51 | 23.05681 | 113.17399 | 21305 ft | 485 kts | 162° |
| 2026-05-05 11:52 | 23.02562 | 113.18807 | 21543 ft | 487 kts | 164° |
| 2026-05-05 11:52 | 22.99357 | 113.19988 | 21771 ft | 486 kts | 168° |
| 2026-05-05 11:52 | 22.96165 | 113.21085 | 22031 ft | 489 kts | 167° |
| 2026-05-05 11:52 | 22.92925 | 113.22207 | 22286 ft | 491 kts | 167° |
| 2026-05-05 11:53 | 22.89657 | 113.23341 | 22536 ft | 493 kts | 167° |
| 2026-05-05 11:53 | 22.86373 | 113.24482 | 22792 ft | 496 kts | 167° |
| 2026-05-05 11:53 | 22.83078 | 113.25626 | 23055 ft | 499 kts | 167° |
| 2026-05-05 11:53 | 22.79767 | 113.26775 | 23319 ft | 501 kts | 167° |
| 2026-05-05 11:54 | 22.76430 | 113.27932 | 23583 ft | 504 kts | 167° |
| 2026-05-05 11:54 | 22.73083 | 113.29092 | 23831 ft | 506 kts | 167° |
| 2026-05-05 11:54 | 22.69769 | 113.30239 | 24112 ft | 509 kts | 167° |
| 2026-05-05 11:54 | 22.66385 | 113.31410 | 24400 ft | 511 kts | 167° |
| 2026-05-05 11:55 | 22.62998 | 113.32582 | 24666 ft | 513 kts | 167° |
| 2026-05-05 11:55 | 22.59595 | 113.33757 | 24930 ft | 515 kts | 167° |
| 2026-05-05 11:55 | 22.56165 | 113.34937 | 25227 ft | 517 kts | 167° |
| 2026-05-05 11:55 | 22.52735 | 113.36116 | 25504 ft | 519 kts | 167° |
| 2026-05-05 11:56 | 22.49285 | 113.37302 | 25807 ft | 522 kts | 167° |
| 2026-05-05 11:56 | 22.45815 | 113.38494 | 26086 ft | 524 kts | 167° |
| 2026-05-05 11:56 | 22.42381 | 113.39673 | 26383 ft | 526 kts | 167° |
| 2026-05-05 11:56 | 22.38878 | 113.40876 | 26683 ft | 529 kts | 167° |
| 2026-05-05 11:57 | 22.35357 | 113.42084 | 27047 ft | 532 kts | 167° |
| 2026-05-05 11:57 | 22.31813 | 113.43298 | 27492 ft | 535 kts | 168° |
| 2026-05-05 11:57 | 22.28266 | 113.44516 | 27955 ft | 537 kts | 168° |
| 2026-05-05 11:57 | 22.24741 | 113.45722 | 28335 ft | 539 kts | 167° |
| 2026-05-05 11:58 | 22.21158 | 113.46950 | 28681 ft | 543 kts | 167° |
| 2026-05-05 11:58 | 22.17565 | 113.48252 | 29032 ft | 547 kts | 166° |
| 2026-05-05 11:58 | 22.13961 | 113.49608 | 29401 ft | 550 kts | 166° |
| 2026-05-05 11:58 | 22.10337 | 113.50976 | 29790 ft | 553 kts | 166° |
| 2026-05-05 11:59 | 22.06693 | 113.52343 | 30133 ft | 557 kts | 166° |
| 2026-05-05 11:59 | 22.03009 | 113.53659 | 30493 ft | 556 kts | 169° |
| 2026-05-05 11:59 | 21.99261 | 113.54616 | 30949 ft | 551 kts | 175° |
| 2026-05-05 11:59 | 21.95480 | 113.55181 | 31475 ft | 545 kts | 180° |
| 2026-05-05 12:00 | 21.91735 | 113.55358 | 32393 ft | 531 kts | 185° |
| 2026-05-05 12:00 | 21.88110 | 113.55340 | 33106 ft | 528 kts | 186° |
| 2026-05-05 12:00 | 21.84420 | 113.55334 | 33339 ft | 533 kts | 185° |
| 2026-05-05 12:00 | 21.80697 | 113.55337 | 33786 ft | 534 kts | 185° |
| 2026-05-05 12:01 | 21.76983 | 113.55343 | 34281 ft | 533 kts | 185° |
| 2026-05-05 12:01 | 21.73271 | 113.55348 | 34763 ft | 532 kts | 185° |
| 2026-05-05 12:01 | 21.69568 | 113.55352 | 35221 ft | 532 kts | 185° |
| 2026-05-05 12:01 | 21.65873 | 113.55355 | 35700 ft | 531 kts | 185° |
| 2026-05-05 12:02 | 21.62198 | 113.55358 | 36456 ft | 523 kts | 185° |
| 2026-05-05 12:02 | 21.58648 | 113.55365 | 37456 ft | 512 kts | 185° |
| 2026-05-05 12:02 | 21.55112 | 113.55369 | 37860 ft | 503 kts | 185° |
| 2026-05-05 12:02 | 21.51647 | 113.55372 | 37985 ft | 498 kts | 185° |
| 2026-05-05 12:03 | 21.44585 | 113.55364 | 37984 ft | 516 kts | 185° |
| 2026-05-05 12:03 | 21.37348 | 113.55365 | 37986 ft | 519 kts | 185° |
| 2026-05-05 12:04 | 21.30179 | 113.55373 | 37983 ft | 520 kts | 185° |
| 2026-05-05 12:04 | 21.22943 | 113.55378 | 37977 ft | 520 kts | 185° |
| 2026-05-05 12:05 | 21.15705 | 113.55382 | 37974 ft | 520 kts | 185° |
| 2026-05-05 12:05 | 21.08465 | 113.55386 | 37972 ft | 520 kts | 185° |
| 2026-05-05 12:06 | 21.01275 | 113.55390 | 37972 ft | 520 kts | 185° |
| 2026-05-05 12:06 | 20.94042 | 113.55394 | 37972 ft | 520 kts | 185° |
| 2026-05-05 12:07 | 20.86804 | 113.55398 | 37966 ft | 520 kts | 185° |
| 2026-05-05 12:07 | 20.79563 | 113.55402 | 37966 ft | 520 kts | 185° |
| 2026-05-05 12:08 | 20.72382 | 113.55406 | 37965 ft | 520 kts | 184° |
| 2026-05-05 12:08 | 20.65130 | 113.55410 | 37966 ft | 521 kts | 184° |
| 2026-05-05 12:09 | 20.57888 | 113.55415 | 37960 ft | 521 kts | 184° |
| 2026-05-05 12:09 | 20.50686 | 113.55419 | 37961 ft | 521 kts | 184° |
| 2026-05-05 12:10 | 20.43441 | 113.55423 | 37958 ft | 520 kts | 184° |
| 2026-05-05 12:10 | 20.36194 | 113.55426 | 37958 ft | 522 kts | 184° |
| 2026-05-05 12:11 | 20.28947 | 113.55431 | 37957 ft | 520 kts | 184° |
| 2026-05-05 12:11 | 20.21740 | 113.55435 | 37958 ft | 521 kts | 184° |
| 2026-05-05 12:12 | 20.14500 | 113.55439 | 37957 ft | 520 kts | 184° |
| 2026-05-05 12:12 | 20.07265 | 113.55443 | 37957 ft | 519 kts | 184° |
| 2026-05-05 12:13 | 20.00054 | 113.55447 | 37955 ft | 519 kts | 184° |
| 2026-05-05 12:13 | 19.92829 | 113.55451 | 37957 ft | 519 kts | 184° |
| 2026-05-05 12:14 | 19.85651 | 113.55455 | 37951 ft | 519 kts | 184° |
| 2026-05-05 12:14 | 19.78434 | 113.55458 | 37953 ft | 519 kts | 184° |
| 2026-05-05 12:15 | 19.71205 | 113.55462 | 37949 ft | 519 kts | 184° |
| 2026-05-05 12:15 | 19.64031 | 113.55467 | 37944 ft | 519 kts | 184° |
| 2026-05-05 12:16 | 19.56804 | 113.55471 | 37947 ft | 519 kts | 184° |
| 2026-05-05 12:16 | 19.49580 | 113.55475 | 37942 ft | 518 kts | 184° |
| 2026-05-05 12:17 | 19.42425 | 113.55479 | 37947 ft | 518 kts | 184° |
| 2026-05-05 12:17 | 19.35221 | 113.55483 | 37944 ft | 518 kts | 184° |
| 2026-05-05 12:18 | 19.28008 | 113.55486 | 37944 ft | 518 kts | 184° |
| 2026-05-05 12:18 | 19.20805 | 113.55490 | 37944 ft | 517 kts | 184° |
| 2026-05-05 12:19 | 19.13656 | 113.55495 | 37939 ft | 517 kts | 184° |
| 2026-05-05 12:19 | 19.06453 | 113.55498 | 37938 ft | 518 kts | 184° |
| 2026-05-05 12:20 | 18.99263 | 113.55363 | 37941 ft | 515 kts | 189° |
| 2026-05-05 12:20 | 18.92185 | 113.54388 | 37939 ft | 513 kts | 192° |
| 2026-05-05 12:21 | 18.85160 | 113.53378 | 37936 ft | 513 kts | 192° |
| 2026-05-05 12:21 | 18.78080 | 113.52367 | 37935 ft | 513 kts | 192° |
| 2026-05-05 12:22 | 18.71000 | 113.51357 | 37935 ft | 514 kts | 192° |
| 2026-05-05 12:22 | 18.63953 | 113.50351 | 37931 ft | 514 kts | 192° |
| 2026-05-05 12:23 | 18.57044 | 113.48704 | 37926 ft | 504 kts | 204° |
| 2026-05-05 12:23 | 18.50872 | 113.45455 | 37923 ft | 492 kts | 218° |
| 2026-05-05 12:24 | 18.45347 | 113.41201 | 37927 ft | 495 kts | 220° |
| 2026-05-05 12:24 | 18.39835 | 113.36954 | 37937 ft | 494 kts | 220° |
| 2026-05-05 12:25 | 18.34288 | 113.32687 | 37931 ft | 494 kts | 220° |
| 2026-05-05 12:25 | 18.28734 | 113.28413 | 37919 ft | 493 kts | 220° |
| 2026-05-05 12:26 | 18.23236 | 113.24185 | 37929 ft | 493 kts | 220° |
| 2026-05-05 12:26 | 18.17698 | 113.19929 | 37925 ft | 493 kts | 220° |
| 2026-05-05 12:27 | 18.12161 | 113.15678 | 37927 ft | 493 kts | 220° |
| 2026-05-05 12:27 | 18.06621 | 113.11427 | 37933 ft | 493 kts | 220° |
| 2026-05-05 12:28 | 18.01070 | 113.07171 | 37925 ft | 494 kts | 220° |
| 2026-05-05 12:28 | 17.95561 | 113.02951 | 37927 ft | 494 kts | 220° |
| 2026-05-05 12:29 | 17.90007 | 112.98701 | 37915 ft | 494 kts | 220° |
| 2026-05-05 12:29 | 17.84456 | 112.94451 | 37926 ft | 494 kts | 220° |
| 2026-05-05 12:30 | 17.79000 | 112.90157 | 37922 ft | 493 kts | 220° |
| 2026-05-05 12:30 | 17.73516 | 112.85824 | 37929 ft | 493 kts | 220° |
| 2026-05-05 12:31 | 17.68018 | 112.81500 | 37924 ft | 495 kts | 220° |
| 2026-05-05 12:31 | 17.62540 | 112.77200 | 37921 ft | 495 kts | 220° |
| 2026-05-05 12:32 | 17.57029 | 112.72877 | 37924 ft | 495 kts | 220° |
| 2026-05-05 12:32 | 17.51514 | 112.68554 | 37923 ft | 495 kts | 220° |
| 2026-05-05 12:33 | 17.45995 | 112.64232 | 37925 ft | 495 kts | 220° |
| 2026-05-05 12:33 | 17.40517 | 112.59945 | 37921 ft | 495 kts | 220° |
| 2026-05-05 12:34 | 17.35000 | 112.55632 | 37922 ft | 495 kts | 220° |
| 2026-05-05 12:34 | 17.29481 | 112.51320 | 37923 ft | 495 kts | 220° |
| 2026-05-05 12:35 | 17.23962 | 112.47012 | 37921 ft | 495 kts | 220° |
| 2026-05-05 12:35 | 17.18473 | 112.42729 | 37922 ft | 497 kts | 220° |
| 2026-05-05 12:36 | 17.12934 | 112.38412 | 37908 ft | 497 kts | 220° |
| 2026-05-05 12:36 | 17.07371 | 112.34077 | 37920 ft | 499 kts | 220° |
| 2026-05-05 12:37 | 17.01806 | 112.29747 | 37922 ft | 498 kts | 220° |
| 2026-05-05 12:37 | 16.96265 | 112.25475 | 37923 ft | 499 kts | 219° |
| 2026-05-05 12:38 | 16.90636 | 112.21226 | 37921 ft | 499 kts | 219° |
| 2026-05-05 12:38 | 16.85016 | 112.16975 | 37917 ft | 499 kts | 219° |
| 2026-05-05 12:39 | 16.79387 | 112.12712 | 37912 ft | 501 kts | 219° |
| 2026-05-05 12:39 | 16.73774 | 112.08463 | 37922 ft | 501 kts | 219° |
| 2026-05-05 12:40 | 16.68127 | 112.04191 | 37921 ft | 502 kts | 219° |
| 2026-05-05 12:40 | 16.62475 | 111.99920 | 37915 ft | 501 kts | 219° |
| 2026-05-05 12:41 | 16.56856 | 111.95676 | 37920 ft | 502 kts | 219° |
| 2026-05-05 12:41 | 16.51205 | 111.91411 | 37920 ft | 502 kts | 219° |
| 2026-05-05 12:42 | 16.45545 | 111.87143 | 37917 ft | 502 kts | 219° |
| 2026-05-05 12:42 | 16.39883 | 111.82876 | 37916 ft | 502 kts | 219° |
| 2026-05-05 12:43 | 16.34258 | 111.78640 | 37907 ft | 504 kts | 219° |
| 2026-05-05 12:43 | 16.28572 | 111.74361 | 37917 ft | 504 kts | 219° |
| 2026-05-05 12:44 | 16.22887 | 111.70087 | 37911 ft | 504 kts | 219° |
| 2026-05-05 12:44 | 16.17215 | 111.65826 | 37915 ft | 503 kts | 219° |
| 2026-05-05 12:45 | 16.11580 | 111.61595 | 37912 ft | 503 kts | 219° |
| 2026-05-05 12:45 | 16.05906 | 111.57337 | 37910 ft | 503 kts | 219° |
| 2026-05-05 12:46 | 16.00231 | 111.53082 | 37912 ft | 503 kts | 219° |
| 2026-05-05 12:46 | 15.94557 | 111.48831 | 37912 ft | 503 kts | 219° |
| 2026-05-05 12:47 | 15.88878 | 111.44579 | 37912 ft | 503 kts | 219° |
| 2026-05-05 12:47 | 15.83236 | 111.40358 | 37912 ft | 503 kts | 219° |
| 2026-05-05 12:48 | 15.77555 | 111.36111 | 37910 ft | 503 kts | 219° |
| 2026-05-05 12:48 | 15.71877 | 111.31869 | 37909 ft | 503 kts | 219° |
| 2026-05-05 12:49 | 15.66232 | 111.27654 | 37908 ft | 503 kts | 219° |
| 2026-05-05 12:49 | 15.60547 | 111.23412 | 37904 ft | 504 kts | 219° |
| 2026-05-05 12:50 | 15.54855 | 111.19169 | 37904 ft | 504 kts | 219° |
| 2026-05-05 12:50 | 15.49194 | 111.14952 | 37904 ft | 504 kts | 219° |
| 2026-05-05 12:51 | 15.43489 | 111.10704 | 37922 ft | 505 kts | 219° |
| 2026-05-05 12:51 | 15.37782 | 111.06457 | 37925 ft | 505 kts | 219° |
| 2026-05-05 12:52 | 15.32085 | 111.02187 | 37906 ft | 505 kts | 220° |
| 2026-05-05 12:52 | 15.26469 | 110.97901 | 37910 ft | 504 kts | 220° |
| 2026-05-05 12:53 | 15.20814 | 110.93595 | 37895 ft | 504 kts | 220° |
| 2026-05-05 12:53 | 15.15157 | 110.89300 | 37897 ft | 504 kts | 220° |
| 2026-05-05 12:54 | 15.06706 | 110.82891 | 37921 ft | 505 kts | 219° |
| 2026-05-05 12:55 | 15.01036 | 110.78594 | 37920 ft | 505 kts | 219° |
| 2026-05-05 12:55 | 14.95389 | 110.74318 | 37908 ft | 502 kts | 219° |
| 2026-05-05 12:56 | 14.89787 | 110.70079 | 37907 ft | 502 kts | 219° |
| 2026-05-05 12:56 | 14.84148 | 110.65814 | 37907 ft | 502 kts | 219° |
| 2026-05-05 12:57 | 14.78509 | 110.61552 | 37911 ft | 502 kts | 219° |
| 2026-05-05 12:57 | 14.72870 | 110.57294 | 37911 ft | 502 kts | 219° |
| 2026-05-05 12:58 | 14.67269 | 110.53065 | 37909 ft | 501 kts | 219° |
| 2026-05-05 12:58 | 14.61644 | 110.48823 | 37907 ft | 501 kts | 219° |
| 2026-05-05 12:59 | 14.56003 | 110.44570 | 37912 ft | 501 kts | 218° |
| 2026-05-05 12:59 | 14.50406 | 110.40355 | 37912 ft | 502 kts | 218° |
| 2026-05-05 13:00 | 14.41954 | 110.33994 | 37905 ft | 502 kts | 218° |
| 2026-05-05 13:01 | 14.30673 | 110.25511 | 37908 ft | 502 kts | 218° |
| 2026-05-05 13:01 | 14.25075 | 110.21307 | 37908 ft | 502 kts | 218° |
| 2026-05-05 13:02 | 14.19431 | 110.17070 | 37913 ft | 502 kts | 218° |
| 2026-05-05 13:02 | 14.13793 | 110.12840 | 37909 ft | 503 kts | 218° |
| 2026-05-05 13:03 | 14.08170 | 110.08624 | 37908 ft | 503 kts | 218° |
| 2026-05-05 13:03 | 14.02501 | 110.04375 | 37911 ft | 504 kts | 218° |
| 2026-05-05 13:04 | 13.96820 | 110.00138 | 37910 ft | 504 kts | 216° |
| 2026-05-05 13:04 | 13.90869 | 109.96279 | 37910 ft | 506 kts | 214° |
| 2026-05-05 13:05 | 13.84907 | 109.92441 | 37912 ft | 505 kts | 214° |
| 2026-05-05 13:05 | 13.78990 | 109.88632 | 37909 ft | 505 kts | 214° |
| 2026-05-05 13:06 | 13.73028 | 109.84798 | 37906 ft | 507 kts | 214° |
| 2026-05-05 13:06 | 13.67037 | 109.80949 | 37911 ft | 508 kts | 213° |
| 2026-05-05 13:07 | 13.61085 | 109.77128 | 37908 ft | 507 kts | 214° |
| 2026-05-05 13:07 | 13.55104 | 109.73290 | 37909 ft | 507 kts | 214° |
| 2026-05-05 13:08 | 13.49121 | 109.69453 | 37908 ft | 507 kts | 214° |
| 2026-05-05 13:08 | 13.43175 | 109.65642 | 37911 ft | 507 kts | 214° |
| 2026-05-05 13:09 | 13.37184 | 109.61804 | 37909 ft | 507 kts | 213° |
| 2026-05-05 13:09 | 13.31196 | 109.57972 | 37909 ft | 507 kts | 213° |
| 2026-05-05 13:10 | 13.25208 | 109.54141 | 37905 ft | 507 kts | 213° |
| 2026-05-05 13:10 | 13.19252 | 109.50333 | 37909 ft | 507 kts | 213° |
| 2026-05-05 13:11 | 13.13261 | 109.46505 | 37909 ft | 507 kts | 213° |
| 2026-05-05 13:11 | 13.07260 | 109.42673 | 37908 ft | 509 kts | 213° |
| 2026-05-05 13:12 | 13.01248 | 109.38835 | 37911 ft | 508 kts | 213° |
| 2026-05-05 13:12 | 12.95287 | 109.35033 | 37912 ft | 508 kts | 213° |
| 2026-05-05 13:13 | 12.89271 | 109.31198 | 37913 ft | 509 kts | 213° |
| 2026-05-05 13:13 | 12.83268 | 109.27373 | 37911 ft | 508 kts | 213° |
| 2026-05-05 13:14 | 12.77293 | 109.23567 | 37913 ft | 509 kts | 213° |
| 2026-05-05 13:14 | 12.71282 | 109.19741 | 37913 ft | 509 kts | 213° |
| 2026-05-05 13:15 | 12.65265 | 109.15913 | 37915 ft | 509 kts | 213° |
| 2026-05-05 13:15 | 12.59292 | 109.12119 | 37911 ft | 509 kts | 213° |
| 2026-05-05 13:16 | 12.53276 | 109.08302 | 37916 ft | 509 kts | 213° |
| 2026-05-05 13:16 | 12.47265 | 109.04488 | 37922 ft | 509 kts | 213° |
| 2026-05-05 13:17 | 12.41253 | 109.00676 | 37921 ft | 506 kts | 213° |
| 2026-05-05 13:17 | 12.35414 | 108.96976 | 37934 ft | 505 kts | 213° |
| 2026-05-05 13:18 | 12.29441 | 108.93192 | 37933 ft | 505 kts | 213° |
| 2026-05-05 13:18 | 12.23461 | 108.89407 | 37933 ft | 505 kts | 213° |
| 2026-05-05 13:19 | 12.17486 | 108.85626 | 37929 ft | 505 kts | 213° |
| 2026-05-05 13:19 | 12.11508 | 108.81845 | 37942 ft | 506 kts | 213° |
| 2026-05-05 13:20 | 12.05543 | 108.78076 | 37940 ft | 508 kts | 213° |
| 2026-05-05 13:20 | 11.99471 | 108.74239 | 37940 ft | 515 kts | 213° |
| 2026-05-05 13:21 | 11.93375 | 108.70391 | 37939 ft | 514 kts | 213° |
| 2026-05-05 13:21 | 11.87329 | 108.66576 | 37939 ft | 514 kts | 213° |
| 2026-05-05 13:22 | 11.81244 | 108.62738 | 37925 ft | 514 kts | 213° |
| 2026-05-05 13:22 | 11.75145 | 108.58896 | 37924 ft | 518 kts | 213° |
| 2026-05-05 13:23 | 11.69013 | 108.55034 | 37910 ft | 518 kts | 213° |
| 2026-05-05 13:23 | 11.62932 | 108.51206 | 37907 ft | 517 kts | 213° |
| 2026-05-05 13:24 | 11.56804 | 108.47351 | 37889 ft | 518 kts | 213° |
| 2026-05-05 13:24 | 11.51710 | 108.44147 | 37891 ft | 518 kts | 213° |
| 2026-05-05 13:25 | 11.44575 | 108.39663 | 37894 ft | 512 kts | 213° |
| 2026-05-05 13:25 | 11.38545 | 108.35875 | 37875 ft | 513 kts | 213° |
| 2026-05-05 13:26 | 11.32470 | 108.32060 | 37880 ft | 513 kts | 213° |
| 2026-05-05 13:26 | 11.27409 | 108.28884 | 37869 ft | 513 kts | 213° |
| 2026-05-05 13:27 | 11.20344 | 108.24452 | 37870 ft | 513 kts | 213° |